createdAt,value
2019-01-04T00:00:39.988Z,1029.19
2019-01-04T00:01:40.014Z,1029.16
2019-01-04T00:02:40.041Z,1029.16
2019-01-04T00:03:40.069Z,1029.15
2019-01-04T00:04:40.097Z,1029.08
2019-01-04T00:05:40.123Z,1029.04
2019-01-04T00:06:40.152Z,1029.07
2019-01-04T00:07:40.180Z,1029.07
2019-01-04T00:08:40.208Z,1029.06
2019-01-04T00:09:40.234Z,1029.05
2019-01-04T00:10:40.270Z,1029.06
2019-01-04T00:11:40.289Z,1029.05
2019-01-04T00:12:40.319Z,1029.06
2019-01-04T00:13:40.348Z,1029.01
2019-01-04T00:14:40.373Z,1028.97
2019-01-04T00:15:40.405Z,1028.90
2019-01-04T00:16:40.427Z,1028.92
2019-01-04T00:17:40.462Z,1028.90
2019-01-04T00:18:40.486Z,1028.93
2019-01-04T00:19:40.515Z,1028.99
2019-01-04T00:20:40.539Z,1028.98
2019-01-04T00:21:40.569Z,1028.99
2019-01-04T00:22:40.593Z,1029.03
2019-01-04T00:23:40.630Z,1029.01
2019-01-04T00:24:40.653Z,1029.02
2019-01-04T00:25:40.676Z,1029.04
2019-01-04T00:26:40.708Z,1029.06
2019-01-04T00:27:40.732Z,1029.00
2019-01-04T00:28:40.760Z,1028.93
2019-01-04T00:29:40.839Z,1028.93
2019-01-04T00:30:40.816Z,1028.97
2019-01-04T00:31:40.844Z,1028.95
2019-01-04T00:32:40.872Z,1028.92
2019-01-04T00:33:40.900Z,1028.96
2019-01-04T00:34:40.927Z,1028.98
2019-01-04T00:35:40.954Z,1028.98
2019-01-04T00:36:40.982Z,1029.00
2019-01-04T00:37:41.009Z,1028.99
2019-01-04T00:38:41.037Z,1029.01
2019-01-04T00:39:41.069Z,1029.01
2019-01-04T00:40:41.093Z,1028.96
2019-01-04T00:41:41.125Z,1028.96
2019-01-04T00:42:41.157Z,1028.97
2019-01-04T00:43:41.179Z,1028.98
2019-01-04T00:44:41.204Z,1028.90
2019-01-04T00:45:41.231Z,1028.90
2019-01-04T00:46:41.259Z,1028.90
2019-01-04T00:47:41.287Z,1028.88
2019-01-04T00:48:41.316Z,1028.90
2019-01-04T00:49:41.341Z,1028.90
2019-01-04T00:50:41.368Z,1028.87
2019-01-04T00:51:41.398Z,1028.85
2019-01-04T00:52:41.425Z,1028.85
2019-01-04T00:53:41.461Z,1028.85
2019-01-04T00:54:41.481Z,1028.87
2019-01-04T00:55:41.508Z,1028.81
2019-01-04T00:56:41.536Z,1028.85
2019-01-04T00:57:41.562Z,1028.82
2019-01-04T00:58:41.592Z,1028.78
2019-01-04T00:59:41.620Z,1028.79
2019-01-04T01:00:41.649Z,1028.80
2019-01-04T01:01:41.675Z,1028.80
2019-01-04T01:02:41.702Z,1028.82
2019-01-04T01:03:41.730Z,1028.83
2019-01-04T01:04:41.758Z,1028.83
2019-01-04T01:05:41.785Z,1028.86
2019-01-04T01:06:41.859Z,1028.86
2019-01-04T01:07:41.842Z,1028.83
2019-01-04T01:08:41.870Z,1028.84
2019-01-04T01:09:41.897Z,1028.85
2019-01-04T01:10:41.928Z,1028.86
2019-01-04T01:11:41.955Z,1028.84
2019-01-04T01:12:41.982Z,1028.86
2019-01-04T01:13:42.009Z,1028.84
2019-01-04T01:14:42.039Z,1028.84
2019-01-04T01:15:42.065Z,1028.89
2019-01-04T01:16:42.093Z,1028.91
2019-01-04T01:17:42.118Z,1028.93
2019-01-04T01:18:42.147Z,1028.88
2019-01-04T01:19:42.175Z,1028.89
2019-01-04T01:20:42.204Z,1028.85
2019-01-04T01:21:42.230Z,1028.87
2019-01-04T01:22:42.258Z,1028.88
2019-01-04T01:23:42.287Z,1028.91
2019-01-04T01:24:42.315Z,1028.92
2019-01-04T01:25:42.343Z,1028.90
2019-01-04T01:26:42.384Z,1028.96
2019-01-04T01:27:42.400Z,1028.94
2019-01-04T01:28:42.426Z,1028.93
2019-01-04T01:29:42.452Z,1028.89
2019-01-04T01:30:42.480Z,1028.89
2019-01-04T01:31:42.510Z,1028.87
2019-01-04T01:32:42.540Z,1028.88
2019-01-04T01:33:42.564Z,1028.86
2019-01-04T01:34:42.595Z,1028.87
2019-01-04T01:35:42.622Z,1028.86
2019-01-04T01:36:42.647Z,1028.83
2019-01-04T01:37:42.675Z,1028.82
2019-01-04T01:38:42.704Z,1028.81
2019-01-04T01:39:42.732Z,1028.80
2019-01-04T01:40:42.761Z,1028.75
2019-01-04T01:41:42.786Z,1028.72
2019-01-04T01:42:42.814Z,1028.72
2019-01-04T01:43:42.848Z,1028.68
2019-01-04T01:44:42.875Z,1028.69
2019-01-04T01:45:42.899Z,1028.67
2019-01-04T01:46:42.926Z,1028.64
2019-01-04T01:47:42.956Z,1028.66
2019-01-04T01:48:42.982Z,1028.62
2019-01-04T01:49:43.009Z,1028.64
2019-01-04T01:50:43.039Z,1028.68
2019-01-04T01:51:43.099Z,1028.71
2019-01-04T01:52:43.094Z,1028.71
2019-01-04T01:53:43.121Z,1028.66
2019-01-04T01:54:43.151Z,1028.71
2019-01-04T01:55:43.180Z,1028.70
2019-01-04T01:56:43.203Z,1028.65
2019-01-04T01:57:43.234Z,1028.66
2019-01-04T01:58:43.259Z,1028.66
2019-01-04T01:59:43.288Z,1028.61
2019-01-04T02:00:43.316Z,1028.64
2019-01-04T02:01:43.341Z,1028.61
2019-01-04T02:02:43.371Z,1028.66
2019-01-04T02:03:43.400Z,1028.64
2019-01-04T02:04:43.425Z,1028.65
2019-01-04T02:05:43.453Z,1028.67
2019-01-04T02:06:43.481Z,1028.69
2019-01-04T02:07:43.576Z,1028.64
2019-01-04T02:08:43.536Z,1028.64
2019-01-04T02:09:43.562Z,1028.65
2019-01-04T02:10:43.593Z,1028.62
2019-01-04T02:11:43.621Z,1028.62
2019-01-04T02:12:43.649Z,1028.55
2019-01-04T02:13:43.674Z,1028.61
2019-01-04T02:14:43.702Z,1028.56
2019-01-04T02:15:43.731Z,1028.58
2019-01-04T02:16:43.758Z,1028.49
2019-01-04T02:17:43.785Z,1028.50
2019-01-04T02:18:43.823Z,1028.44
2019-01-04T02:19:43.842Z,1028.42
2019-01-04T02:20:43.874Z,1028.41
2019-01-04T02:21:43.898Z,1028.39
2019-01-04T02:22:43.925Z,1028.40
2019-01-04T02:23:43.952Z,1028.39
2019-01-04T02:24:43.980Z,1028.37
2019-01-04T02:25:44.007Z,1028.36
2019-01-04T02:26:44.035Z,1028.34
2019-01-04T02:27:44.065Z,1028.29
2019-01-04T02:28:44.090Z,1028.27
2019-01-04T02:29:44.119Z,1028.27
2019-01-04T02:30:44.146Z,1028.28
2019-01-04T02:31:44.174Z,1028.26
2019-01-04T02:32:44.204Z,1028.27
2019-01-04T02:33:44.234Z,1028.23
2019-01-04T02:34:44.258Z,1028.22
2019-01-04T02:35:44.284Z,1028.25
2019-01-04T02:36:44.314Z,1028.27
2019-01-04T02:37:44.343Z,1028.25
2019-01-04T02:38:44.374Z,1028.20
2019-01-04T02:39:44.394Z,1028.18
2019-01-04T02:40:44.424Z,1028.16
2019-01-04T02:41:44.451Z,1028.19
2019-01-04T02:42:44.478Z,1028.15
2019-01-04T02:43:44.512Z,1028.12
2019-01-04T02:44:44.534Z,1028.10
2019-01-04T02:45:44.570Z,1028.09
2019-01-04T02:46:44.589Z,1028.05
2019-01-04T02:47:44.617Z,1028.04
2019-01-04T02:48:44.644Z,1028.01
2019-01-04T02:49:44.671Z,1028.03
2019-01-04T02:50:44.699Z,1028.03
2019-01-04T02:51:44.759Z,1027.96
2019-01-04T02:52:44.761Z,1027.93
2019-01-04T02:53:44.781Z,1027.91
2019-01-04T02:54:44.816Z,1027.93
2019-01-04T02:55:44.838Z,1027.94
2019-01-04T02:56:44.869Z,1027.95
2019-01-04T02:57:44.894Z,1027.94
2019-01-04T02:58:44.920Z,1027.87
2019-01-04T02:59:44.948Z,1027.85
2019-01-04T03:00:44.983Z,1027.95
2019-01-04T03:01:45.013Z,1027.89
2019-01-04T03:02:45.033Z,1027.95
2019-01-04T03:03:45.060Z,1027.89
2019-01-04T03:04:45.087Z,1027.92
2019-01-04T03:05:45.117Z,1027.88
2019-01-04T03:06:45.149Z,1027.91
2019-01-04T03:07:45.172Z,1027.83
2019-01-04T03:08:45.199Z,1027.84
2019-01-04T03:09:45.225Z,1027.83
2019-01-04T03:10:45.252Z,1027.80
2019-01-04T03:11:45.282Z,1027.81
2019-01-04T03:12:45.308Z,1027.78
2019-01-04T03:13:45.336Z,1027.77
2019-01-04T03:14:45.370Z,1027.73
2019-01-04T03:15:45.391Z,1027.73
2019-01-04T03:16:45.419Z,1027.67
2019-01-04T03:17:45.445Z,1027.70
2019-01-04T03:18:45.474Z,1027.65
2019-01-04T03:19:45.503Z,1027.61
2019-01-04T03:20:45.529Z,1027.61
2019-01-04T03:21:45.561Z,1027.57
2019-01-04T03:22:45.584Z,1027.56
2019-01-04T03:23:45.613Z,1027.57
2019-01-04T03:24:45.644Z,1027.51
2019-01-04T03:25:45.668Z,1027.55
2019-01-04T03:26:45.695Z,1027.55
2019-01-04T03:27:45.723Z,1027.53
2019-01-04T03:28:45.751Z,1027.51
2019-01-04T03:29:45.780Z,1027.48
2019-01-04T03:30:45.809Z,1027.44
2019-01-04T03:31:45.852Z,1027.43
2019-01-04T03:32:45.862Z,1027.38
2019-01-04T03:33:45.886Z,1027.38
2019-01-04T03:34:45.919Z,1027.43
2019-01-04T03:35:45.942Z,1027.41
2019-01-04T03:36:45.971Z,1027.39
2019-01-04T03:37:45.998Z,1027.36
2019-01-04T03:38:46.025Z,1027.30
2019-01-04T03:39:46.056Z,1027.33
2019-01-04T03:40:46.081Z,1027.32
2019-01-04T03:41:46.116Z,1027.33
2019-01-04T03:42:46.137Z,1027.30
2019-01-04T03:43:46.163Z,1027.25
2019-01-04T03:44:46.192Z,1027.24
2019-01-04T03:45:46.219Z,1027.19
2019-01-04T03:46:46.250Z,1027.14
2019-01-04T03:47:46.275Z,1027.15
2019-01-04T03:48:46.305Z,1027.15
2019-01-04T03:49:46.330Z,1027.13
2019-01-04T03:50:46.357Z,1027.08
2019-01-04T03:51:46.388Z,1026.99
2019-01-04T03:52:46.414Z,1027.03
2019-01-04T03:53:46.441Z,1026.91
2019-01-04T03:54:46.474Z,1026.92
2019-01-04T03:55:46.496Z,1026.89
2019-01-04T03:56:46.525Z,1026.87
2019-01-04T03:57:46.550Z,1026.88
2019-01-04T03:58:46.580Z,1026.85
2019-01-04T03:59:46.608Z,1026.86
2019-01-04T04:00:46.635Z,1026.89
2019-01-04T04:01:46.661Z,1026.87
2019-01-04T04:02:46.691Z,1026.88
2019-01-04T04:03:46.718Z,1026.89
2019-01-04T04:04:46.746Z,1026.84
2019-01-04T04:05:46.773Z,1026.88
2019-01-04T04:06:46.800Z,1026.85
2019-01-04T04:07:46.827Z,1026.82
2019-01-04T04:08:46.857Z,1026.76
2019-01-04T04:09:46.883Z,1026.77
2019-01-04T04:10:46.913Z,1026.73
2019-01-04T04:11:46.939Z,1026.74
2019-01-04T04:12:46.967Z,1026.70
2019-01-04T04:13:46.993Z,1026.66
2019-01-04T04:14:47.032Z,1026.65
2019-01-04T04:15:47.051Z,1026.59
2019-01-04T04:16:47.081Z,1026.55
2019-01-04T04:17:47.104Z,1026.61
2019-01-04T04:18:47.132Z,1026.58
2019-01-04T04:19:47.160Z,1026.61
2019-01-04T04:20:47.190Z,1026.61
2019-01-04T04:21:47.215Z,1026.60
2019-01-04T04:22:47.243Z,1026.59
2019-01-04T04:23:47.270Z,1026.58
2019-01-04T04:24:47.297Z,1026.60
2019-01-04T04:25:47.325Z,1026.60
2019-01-04T04:26:47.354Z,1026.61
2019-01-04T04:27:47.381Z,1026.58
2019-01-04T04:28:47.408Z,1026.57
2019-01-04T04:29:47.436Z,1026.63
2019-01-04T04:30:47.462Z,1026.63
2019-01-04T04:31:47.498Z,1026.61
2019-01-04T04:32:47.520Z,1026.62
2019-01-04T04:33:47.543Z,1026.64
2019-01-04T04:34:47.572Z,1026.70
2019-01-04T04:35:47.601Z,1026.66
2019-01-04T04:36:47.628Z,1026.65
2019-01-04T04:37:47.653Z,1026.61
2019-01-04T04:38:47.682Z,1026.59
2019-01-04T04:39:47.714Z,1026.60
2019-01-04T04:40:47.745Z,1026.56
2019-01-04T04:41:47.763Z,1026.51
2019-01-04T04:42:47.793Z,1026.52
2019-01-04T04:43:47.820Z,1026.55
2019-01-04T04:44:47.851Z,1026.50
2019-01-04T04:45:47.875Z,1026.53
2019-01-04T04:46:47.908Z,1026.53
2019-01-04T04:47:47.932Z,1026.49
2019-01-04T04:48:47.957Z,1026.47
2019-01-04T04:49:47.987Z,1026.46
2019-01-04T04:50:48.013Z,1026.48
2019-01-04T04:51:48.040Z,1026.52
2019-01-04T04:52:48.069Z,1026.47
2019-01-04T04:53:48.093Z,1026.45
2019-01-04T04:54:48.124Z,1026.40
2019-01-04T04:55:48.149Z,1026.44
2019-01-04T04:56:48.177Z,1026.39
2019-01-04T04:57:48.204Z,1026.42
2019-01-04T04:58:48.232Z,1026.43
2019-01-04T04:59:48.261Z,1026.37
2019-01-04T05:00:48.288Z,1026.35
2019-01-04T05:01:48.313Z,1026.38
2019-01-04T05:02:48.341Z,1026.33
2019-01-04T05:03:48.368Z,1026.34
2019-01-04T05:04:48.397Z,1026.34
2019-01-04T05:05:48.422Z,1026.35
2019-01-04T05:06:48.450Z,1026.36
2019-01-04T05:07:48.478Z,1026.29
2019-01-04T05:08:48.505Z,1026.32
2019-01-04T05:09:48.533Z,1026.35
2019-01-04T05:10:48.559Z,1026.37
2019-01-04T05:11:48.588Z,1026.38
2019-01-04T05:12:48.614Z,1026.38
2019-01-04T05:13:48.640Z,1026.37
2019-01-04T05:14:48.668Z,1026.36
2019-01-04T05:15:48.697Z,1026.37
2019-01-04T05:16:48.732Z,1026.31
2019-01-04T05:17:48.750Z,1026.36
2019-01-04T05:18:48.795Z,1026.37
2019-01-04T05:19:48.805Z,1026.38
2019-01-04T05:20:48.834Z,1026.36
2019-01-04T05:21:48.860Z,1026.34
2019-01-04T05:22:48.888Z,1026.38
2019-01-04T05:23:48.916Z,1026.36
2019-01-04T05:24:48.944Z,1026.38
2019-01-04T05:25:48.969Z,1026.39
2019-01-04T05:26:48.997Z,1026.38
2019-01-04T05:27:49.026Z,1026.36
2019-01-04T05:28:49.051Z,1026.35
2019-01-04T05:29:49.077Z,1026.30
2019-01-04T05:30:49.108Z,1026.24
2019-01-04T05:31:49.134Z,1026.22
2019-01-04T05:32:49.162Z,1026.15
2019-01-04T05:33:49.187Z,1026.12
2019-01-04T05:34:49.216Z,1026.12
2019-01-04T05:35:49.244Z,1026.09
2019-01-04T05:36:49.270Z,1026.06
2019-01-04T05:37:49.298Z,1026.01
2019-01-04T05:38:49.326Z,1025.95
2019-01-04T05:39:49.351Z,1025.95
2019-01-04T05:40:49.381Z,1025.93
2019-01-04T05:41:49.404Z,1025.92
2019-01-04T05:42:49.435Z,1025.90
2019-01-04T05:43:49.459Z,1025.89
2019-01-04T05:44:49.487Z,1025.86
2019-01-04T05:45:49.516Z,1025.91
2019-01-04T05:46:49.543Z,1025.90
2019-01-04T05:47:49.571Z,1025.91
2019-01-04T05:48:49.597Z,1025.89
2019-01-04T05:49:49.623Z,1025.85
2019-01-04T05:50:49.662Z,1025.83
2019-01-04T05:51:49.680Z,1025.85
2019-01-04T05:52:49.711Z,1025.78
2019-01-04T05:53:49.732Z,1025.75
2019-01-04T05:54:49.761Z,1025.72
2019-01-04T05:55:49.787Z,1025.75
2019-01-04T05:56:49.818Z,1025.76
2019-01-04T05:57:49.848Z,1025.75
2019-01-04T05:58:49.874Z,1025.73
2019-01-04T05:59:49.897Z,1025.76
2019-01-04T06:00:49.924Z,1025.78
2019-01-04T06:01:49.952Z,1025.79
2019-01-04T06:02:49.982Z,1025.85
2019-01-04T06:03:50.005Z,1025.86
2019-01-04T06:04:50.045Z,1025.90
2019-01-04T06:05:50.059Z,1025.91
2019-01-04T06:06:50.087Z,1025.92
2019-01-04T06:07:50.115Z,1025.85
2019-01-04T06:08:50.144Z,1025.86
2019-01-04T06:09:50.169Z,1025.84
2019-01-04T06:10:50.196Z,1025.92
2019-01-04T06:11:50.223Z,1025.88
2019-01-04T06:12:50.269Z,1025.91
2019-01-04T06:13:50.277Z,1025.80
2019-01-04T06:14:50.305Z,1025.83
2019-01-04T06:15:50.331Z,1025.80
2019-01-04T06:16:50.359Z,1025.79
2019-01-04T06:17:50.389Z,1025.69
2019-01-04T06:18:50.413Z,1025.69
2019-01-04T06:19:50.439Z,1025.66
2019-01-04T06:20:50.469Z,1025.58
2019-01-04T06:21:50.495Z,1025.50
2019-01-04T06:22:50.521Z,1025.56
2019-01-04T06:23:50.550Z,1025.56
2019-01-04T06:24:50.576Z,1025.55
2019-01-04T06:25:50.606Z,1025.52
2019-01-04T06:26:50.631Z,1025.51
2019-01-04T06:27:50.658Z,1025.51
2019-01-04T06:28:50.687Z,1025.52
2019-01-04T06:29:50.712Z,1025.55
2019-01-04T06:30:50.741Z,1025.53
2019-01-04T06:31:50.769Z,1025.58
2019-01-04T06:32:51.710Z,1025.59
2019-01-04T06:33:50.820Z,1025.62
2019-01-04T06:34:50.848Z,1025.60
2019-01-04T06:35:50.878Z,1025.58
2019-01-04T06:36:50.944Z,1025.53
2019-01-04T06:37:50.931Z,1025.53
2019-01-04T06:38:50.963Z,1025.49
2019-01-04T06:39:50.985Z,1025.48
2019-01-04T06:40:51.016Z,1025.48
2019-01-04T06:41:51.039Z,1025.41
2019-01-04T06:42:51.067Z,1025.45
2019-01-04T06:43:51.095Z,1025.46
2019-01-04T06:44:51.122Z,1025.46
2019-01-04T06:45:51.148Z,1025.42
2019-01-04T06:46:51.175Z,1025.38
2019-01-04T06:47:51.203Z,1025.36
2019-01-04T06:48:51.231Z,1025.33
2019-01-04T06:49:51.258Z,1025.29
2019-01-04T06:50:51.284Z,1025.33
2019-01-04T06:51:51.312Z,1025.31
2019-01-04T06:52:51.342Z,1025.30
2019-01-04T06:53:51.367Z,1025.25
2019-01-04T06:54:51.396Z,1025.21
2019-01-04T06:55:51.422Z,1025.29
2019-01-04T06:56:51.451Z,1025.32
2019-01-04T06:57:51.485Z,1025.33
2019-01-04T06:58:51.503Z,1025.29
2019-01-04T06:59:51.532Z,1025.29
2019-01-04T07:00:51.561Z,1025.26
2019-01-04T07:01:51.586Z,1025.27
2019-01-04T07:02:51.611Z,1025.27
2019-01-04T07:03:51.640Z,1025.32
2019-01-04T07:04:51.690Z,1025.35
2019-01-04T07:05:51.695Z,1025.34
2019-01-04T07:06:51.722Z,1025.31
2019-01-04T07:07:51.750Z,1025.33
2019-01-04T07:08:51.778Z,1025.36
2019-01-04T07:09:51.804Z,1025.31
2019-01-04T07:10:51.833Z,1025.31
2019-01-04T07:11:51.859Z,1025.27
2019-01-04T07:12:51.889Z,1025.25
2019-01-04T07:13:51.913Z,1025.27
2019-01-04T07:14:51.941Z,1025.26
2019-01-04T07:15:51.968Z,1025.18
2019-01-04T07:16:51.996Z,1025.16
2019-01-04T07:17:52.023Z,1025.16
2019-01-04T07:18:52.049Z,1025.09
2019-01-04T07:19:52.078Z,1025.00
2019-01-04T07:20:52.119Z,1024.99
2019-01-04T07:21:52.140Z,1025.05
2019-01-04T07:22:52.160Z,1024.99
2019-01-04T07:23:52.186Z,1024.97
2019-01-04T07:24:52.215Z,1025.00
2019-01-04T07:25:52.241Z,1024.94
2019-01-04T07:26:52.270Z,1025.09
2019-01-04T07:27:52.297Z,1025.01
2019-01-04T07:28:52.323Z,1025.07
2019-01-04T07:29:52.351Z,1025.00
2019-01-04T07:30:52.378Z,1025.07
2019-01-04T07:31:52.406Z,1025.05
2019-01-04T07:32:52.432Z,1025.07
2019-01-04T07:33:52.460Z,1025.02
2019-01-04T07:34:52.488Z,1025.04
2019-01-04T07:35:52.518Z,1025.00
2019-01-04T07:36:52.542Z,1025.02
2019-01-04T07:37:52.570Z,1025.01
2019-01-04T07:38:52.596Z,1025.04
2019-01-04T07:39:52.625Z,1024.99
2019-01-04T07:40:52.651Z,1025.01
2019-01-04T07:41:52.678Z,1025.00
2019-01-04T07:44:30.642Z,1025.04
2019-01-04T07:45:30.652Z,1025.04
2019-01-04T07:47:32.794Z,1024.99
2019-01-04T07:48:32.818Z,1024.92
2019-01-04T07:50:34.988Z,1024.92
2019-01-04T07:51:34.989Z,1024.95
2019-01-04T07:53:26.995Z,1024.90
2019-01-04T07:54:27.019Z,1024.82
2019-01-04T07:56:29.271Z,1024.72
2019-01-04T07:57:29.294Z,1024.70
2019-01-04T07:59:31.481Z,1024.66
2019-01-04T08:00:31.489Z,1024.67
2019-01-04T08:02:33.624Z,1024.62
2019-01-04T08:03:33.641Z,1024.62
2019-01-04T08:05:35.910Z,1024.62
2019-01-04T08:06:35.806Z,1024.58
2019-01-04T08:08:37.950Z,1024.58
2019-01-04T08:09:37.976Z,1024.57
2019-01-04T08:11:40.139Z,1024.51
2019-01-04T08:12:40.163Z,1024.43
2019-01-04T08:14:42.327Z,1024.45
2019-01-04T08:15:42.318Z,1024.48
2019-01-04T08:17:44.485Z,1024.48
2019-01-04T08:18:44.490Z,1024.49
2019-01-04T08:20:46.636Z,1024.49
2019-01-04T08:21:46.659Z,1024.46
2019-01-04T08:23:38.667Z,1024.43
2019-01-04T08:24:38.693Z,1024.41
2019-01-04T08:26:40.863Z,1024.40
2019-01-04T08:27:40.862Z,1024.45
2019-01-04T08:29:43.016Z,1024.36
2019-01-04T08:30:43.034Z,1024.32
2019-01-04T08:32:45.197Z,1024.36
2019-01-04T08:33:45.205Z,1024.32
2019-01-04T08:35:47.350Z,1024.33
2019-01-04T08:36:47.373Z,1024.33
2019-01-04T08:38:49.522Z,1024.26
2019-01-04T08:39:49.545Z,1024.23
2019-01-04T08:41:51.693Z,1024.23
2019-01-04T08:42:51.718Z,1024.14
2019-01-04T08:44:53.879Z,1024.18
2019-01-04T08:45:53.886Z,1024.14
2019-01-04T08:47:56.034Z,1024.17
2019-01-04T08:48:56.058Z,1024.19
2019-01-04T08:50:58.201Z,1024.21
2019-01-04T08:51:58.232Z,1024.23
2019-01-04T08:53:50.264Z,1024.21
2019-01-04T08:54:50.256Z,1024.23
2019-01-04T08:56:52.409Z,1024.15
2019-01-04T08:57:52.455Z,1024.14
2019-01-04T08:59:54.632Z,1024.07
2019-01-04T09:00:54.599Z,1024.06
2019-01-04T09:02:56.751Z,1024.03
2019-01-04T09:03:56.776Z,1024.00
2019-01-04T09:05:58.939Z,1024.07
2019-01-04T09:06:58.944Z,1023.93
2019-01-04T09:09:01.086Z,1023.87
2019-01-04T09:10:01.116Z,1023.82
2019-01-04T09:12:03.258Z,1023.82
2019-01-04T09:13:03.282Z,1023.79
2019-01-04T09:15:05.789Z,1023.74
2019-01-04T09:16:05.463Z,1023.73
2019-01-04T09:18:07.601Z,1023.72
2019-01-04T09:19:07.622Z,1023.68
2019-01-04T09:21:09.787Z,1023.74
2019-01-04T09:22:09.793Z,1023.67
2019-01-04T09:24:01.802Z,1023.76
2019-01-04T09:25:01.825Z,1023.77
2019-01-04T09:27:03.979Z,1023.71
2019-01-04T09:28:04.005Z,1023.64
2019-01-04T09:30:06.146Z,1023.78
2019-01-04T09:31:06.167Z,1023.79
2019-01-04T09:33:08.340Z,1023.56
2019-01-04T09:34:08.338Z,1023.53
2019-01-04T09:35:08.367Z,1023.41
2019-01-04T09:36:08.395Z,1023.41
2019-01-04T09:37:08.419Z,1023.44
2019-01-04T09:38:08.447Z,1023.45
2019-01-04T09:39:08.476Z,1023.37
2019-01-04T09:40:08.502Z,1023.41
2019-01-04T09:41:08.531Z,1023.37
2019-01-04T09:42:08.563Z,1023.31
2019-01-04T09:43:08.585Z,1023.30
2019-01-04T09:44:08.613Z,1023.32
2019-01-04T09:45:08.639Z,1023.29
2019-01-04T09:46:08.668Z,1023.27
2019-01-04T09:47:08.696Z,1023.24
2019-01-04T09:48:08.738Z,1023.17
2019-01-04T09:49:08.812Z,1023.16
2019-01-04T09:50:08.777Z,1023.10
2019-01-04T09:51:08.806Z,1023.06
2019-01-04T09:52:08.833Z,1023.08
2019-01-04T09:53:08.861Z,1023.13
2019-01-04T09:54:08.890Z,1023.02
2019-01-04T09:55:08.916Z,1023.06
2019-01-04T09:56:08.945Z,1023.06
2019-01-04T09:57:08.972Z,1023.07
2019-01-04T09:58:08.999Z,1023.02
2019-01-04T09:59:09.028Z,1022.96
2019-01-04T10:00:09.060Z,1022.95
2019-01-04T10:01:09.085Z,1022.93
2019-01-04T10:02:09.110Z,1022.95
2019-01-04T10:03:09.138Z,1022.95
2019-01-04T10:04:09.166Z,1022.93
2019-01-04T10:05:09.194Z,1022.92
2019-01-04T10:06:09.221Z,1022.91
2019-01-04T10:07:09.250Z,1022.89
2019-01-04T10:08:09.277Z,1022.82
2019-01-04T10:09:09.328Z,1022.86
2019-01-04T10:10:09.332Z,1022.80
2019-01-04T10:11:09.360Z,1022.84
2019-01-04T10:12:09.405Z,1022.75
2019-01-04T10:13:09.414Z,1022.64
2019-01-04T10:14:09.451Z,1022.67
2019-01-04T10:15:09.470Z,1022.73
2019-01-04T10:16:09.497Z,1022.71
2019-01-04T10:17:09.525Z,1022.69
2019-01-04T10:18:09.553Z,1022.69
2019-01-04T10:19:09.581Z,1022.67
2019-01-04T10:20:09.615Z,1022.65
2019-01-04T10:21:09.640Z,1022.51
2019-01-04T10:22:09.680Z,1022.45
2019-01-04T10:23:09.693Z,1022.50
2019-01-04T10:24:09.721Z,1022.58
2019-01-04T10:25:09.749Z,1022.51
2019-01-04T10:26:09.787Z,1022.37
2019-01-04T10:27:09.803Z,1022.42
2019-01-04T10:28:09.832Z,1022.38
2019-01-04T10:29:09.860Z,1022.40
2019-01-04T10:30:09.887Z,1022.37
2019-01-04T10:31:09.914Z,1022.32
2019-01-04T10:32:09.943Z,1022.32
2019-01-04T10:33:09.972Z,1022.27
2019-01-04T10:34:09.999Z,1022.25
2019-01-04T10:35:10.565Z,1022.24
2019-01-04T10:36:10.058Z,1022.16
2019-01-04T10:37:10.095Z,1022.15
2019-01-04T10:38:10.111Z,1022.13
2019-01-04T10:39:10.138Z,1022.08
2019-01-04T10:40:11.238Z,1022.04
2019-01-04T10:41:10.193Z,1022.03
2019-01-04T10:42:10.223Z,1021.94
2019-01-04T10:43:10.249Z,1021.93
2019-01-04T10:44:10.278Z,1021.91
2019-01-04T10:45:10.305Z,1021.80
2019-01-04T10:46:10.333Z,1021.83
2019-01-04T10:47:10.363Z,1021.75
2019-01-04T10:48:10.390Z,1021.74
2019-01-04T10:49:10.420Z,1021.76
2019-01-04T10:50:10.447Z,1021.61
2019-01-04T10:51:10.474Z,1021.59
2019-01-04T10:52:10.501Z,1021.60
2019-01-04T10:53:10.528Z,1021.51
2019-01-04T10:54:10.556Z,1021.56
2019-01-04T10:55:10.627Z,1021.53
2019-01-04T10:56:10.612Z,1021.56
2019-01-04T10:57:10.640Z,1021.51
2019-01-04T10:58:10.669Z,1021.43
2019-01-04T10:59:10.696Z,1021.42
2019-01-04T11:00:10.724Z,1021.38
2019-01-04T11:01:10.755Z,1021.41
2019-01-04T11:02:10.793Z,1021.32
2019-01-04T11:03:10.827Z,1021.31
2019-01-04T11:04:10.837Z,1021.33
2019-01-04T11:05:10.866Z,1021.31
2019-01-04T11:06:10.893Z,1021.24
2019-01-04T11:07:10.922Z,1021.28
2019-01-04T11:08:10.949Z,1021.23
2019-01-04T11:09:11.011Z,1021.11
2019-01-04T11:10:11.005Z,1021.11
2019-01-04T11:11:11.044Z,1021.07
2019-01-04T11:12:11.060Z,1021.14
2019-01-04T11:13:11.089Z,1021.09
2019-01-04T11:14:11.117Z,1021.04
2019-01-04T11:15:11.144Z,1021.04
2019-01-04T11:16:11.171Z,1020.97
2019-01-04T11:17:11.200Z,1021.05
2019-01-04T11:18:11.228Z,1021.02
2019-01-04T11:19:11.255Z,1021.04
2019-01-04T11:20:11.287Z,1021.06
2019-01-04T11:21:11.314Z,1021.00
2019-01-04T11:22:11.340Z,1020.99
2019-01-04T11:23:11.368Z,1020.90
2019-01-04T11:24:11.396Z,1020.86
2019-01-04T11:25:11.423Z,1020.79
2019-01-04T11:26:11.455Z,1020.84
2019-01-04T11:27:11.495Z,1020.92
2019-01-04T11:28:11.511Z,1020.85
2019-01-04T11:29:11.537Z,1020.84
2019-01-04T11:30:11.566Z,1020.82
2019-01-04T11:31:11.595Z,1020.88
2019-01-04T11:32:11.621Z,1020.68
2019-01-04T11:33:11.650Z,1020.68
2019-01-04T11:34:11.679Z,1020.67
2019-01-04T11:35:11.709Z,1020.58
2019-01-04T11:36:11.734Z,1020.53
2019-01-04T11:37:11.763Z,1020.48
2019-01-04T11:38:11.790Z,1020.39
2019-01-04T11:39:11.819Z,1020.38
2019-01-04T11:40:11.846Z,1020.26
2019-01-04T11:41:11.874Z,1020.24
2019-01-04T11:42:11.902Z,1020.24
2019-01-04T11:43:11.932Z,1020.17
2019-01-04T11:44:11.959Z,1020.11
2019-01-04T11:45:11.989Z,1020.05
2019-01-04T11:46:12.014Z,1020.03
2019-01-04T11:47:12.046Z,1019.94
2019-01-04T11:48:12.078Z,1019.96
2019-01-04T11:49:12.099Z,1019.91
2019-01-04T11:50:12.128Z,1019.88
2019-01-04T11:51:12.155Z,1019.86
2019-01-04T11:52:12.185Z,1019.80
2019-01-04T11:53:12.211Z,1019.85
2019-01-04T11:54:12.241Z,1019.88
2019-01-04T11:55:12.272Z,1019.82
2019-01-04T11:56:12.304Z,1019.89
2019-01-04T11:57:12.325Z,1019.81
2019-01-04T11:58:12.354Z,1019.83
2019-01-04T11:59:12.381Z,1019.82
2019-01-04T12:00:12.411Z,1019.80
2019-01-04T12:01:12.440Z,1019.76
2019-01-04T12:02:12.466Z,1019.75
2019-01-04T12:03:12.494Z,1019.66
2019-01-04T12:04:12.523Z,1019.66
2019-01-04T12:05:12.551Z,1019.72
2019-01-04T12:06:12.600Z,1019.65
2019-01-04T12:09:04.765Z,1019.79
2019-01-04T12:10:03.668Z,1019.76
2019-01-04T12:11:03.698Z,1019.77
2019-01-04T12:12:03.723Z,1019.86
2019-01-04T12:13:03.772Z,1019.84
2019-01-04T12:14:03.781Z,1019.83
2019-01-04T12:15:03.807Z,1019.83
2019-01-04T12:16:03.839Z,1019.87
2019-01-04T12:17:03.862Z,1019.83
2019-01-04T12:18:03.893Z,1019.87
2019-01-04T12:19:03.919Z,1019.85
2019-01-04T12:20:03.948Z,1019.96
2019-01-04T12:21:03.976Z,1019.95
2019-01-04T12:22:04.017Z,1020.00
2019-01-04T12:23:04.040Z,1019.99
2019-01-04T12:24:04.060Z,1020.02
2019-01-04T12:25:04.088Z,1020.07
2019-01-04T12:26:04.121Z,1020.04
2019-01-04T12:27:04.146Z,1020.08
2019-01-04T12:28:04.174Z,1020.03
2019-01-04T12:29:04.202Z,1020.03
2019-01-04T12:30:04.231Z,1020.07
2019-01-04T12:31:04.259Z,1020.07
2019-01-04T12:32:04.292Z,1020.01
2019-01-04T12:33:04.316Z,1019.99
2019-01-04T12:34:04.344Z,1020.01
2019-01-04T12:35:04.370Z,1020.05
2019-01-04T12:36:04.398Z,1020.03
2019-01-04T12:37:04.428Z,1020.04
2019-01-04T12:38:04.456Z,1019.98
2019-01-04T12:39:04.483Z,1019.84
2019-01-04T12:40:04.511Z,1019.84
2019-01-04T12:41:04.539Z,1019.78
2019-01-04T12:42:04.569Z,1019.81
2019-01-04T12:43:04.597Z,1019.86
2019-01-04T12:44:04.624Z,1019.84
2019-01-04T12:45:04.654Z,1019.80
2019-01-04T12:46:04.683Z,1019.87